Time;durP1;ratioP1;P1;durP2;ratioP2;P2;SDS_P1;SDS_P2;PMS_P1;PMS_P2;Temp;Humidity;BMP_temperature;BMP_pressure;BME280_temperature;BME280_humidity;BME280_pressure;Samples;Min_cycle;Max_cycle;Signal;HPM_P1;HPM_P2
2022/04/12 00:02:31;;;;;;;1.38;1.05;;;;;;;;;;20307652;29;20135;-83
2022/04/12 00:12:33;;;;;;;1.50;1.20;;;;;;;;;;20281659;29;20053;-83
2022/04/12 00:22:34;;;;;;;1.08;0.98;;;;;;;;;;20307193;29;20507;-81
2022/04/12 00:32:36;;;;;;;1.13;1.02;;;;;;;;;;20285533;29;20048;-81
2022/04/12 00:42:38;;;;;;;2.83;1.20;;;;;;;;;;20302852;29;20116;-81
2022/04/12 00:52:42;;;;;;;1.80;1.17;;;;;;;;;;20272364;29;20055;-81
2022/04/12 01:02:44;;;;;;;1.60;1.27;;;;;;;;;;20303958;29;20776;-80
2022/04/12 01:12:47;;;;;;;1.40;1.00;;;;;;;;;;20285693;29;20388;-80
2022/04/12 01:22:59;;;;;;;1.50;1.17;;;;;;;;;;20309143;29;20047;-80
2022/04/12 01:33:00;;;;;;;1.25;1.15;;;;;;;;;;20275062;29;20036;-80
2022/04/12 01:43:02;;;;;;;1.95;1.20;;;;;;;;;;20282055;29;20044;-80
2022/04/12 01:53:04;;;;;;;0.98;0.88;;;;;;;;;;20278453;29;20048;-81
2022/04/12 02:03:06;;;;;;;1.77;1.10;;;;;;;;;;20288867;29;20060;-81
2022/04/12 02:13:08;;;;;;;1.08;0.98;;;;;;;;;;20294461;29;20044;-81
2022/04/12 02:23:10;;;;;;;1.05;0.95;;;;;;;;;;20299480;29;20048;-81
2022/04/12 02:33:11;;;;;;;1.10;1.00;;;;;;;;;;20296100;29;20051;-81
2022/04/12 02:43:13;;;;;;;1.23;1.00;;;;;;;;;;20294460;29;20067;-81
2022/04/12 02:53:15;;;;;;;1.75;1.10;;;;;;;;;;20296967;29;20043;-81
2022/04/12 03:03:16;;;;;;;1.20;1.10;;;;;;;;;;20283331;29;20068;-82
2022/04/12 03:13:18;;;;;;;1.13;1.00;;;;;;;;;;20269761;29;20045;-81
2022/04/12 03:23:20;;;;;;;1.13;1.02;;;;;;;;;;20273111;29;20044;-82
2022/04/12 03:33:23;;;;;;;1.75;1.05;;;;;;;;;;20284040;29;20085;-81
2022/04/12 03:43:24;;;;;;;0.80;0.80;;;;;;;;;;20292640;29;20061;-81
2022/04/12 03:53:26;;;;;;;2.17;0.90;;;;;;;;;;20318055;29;20056;-82
2022/04/12 04:03:28;;;;;;;1.65;1.13;;;;;;;;;;20270388;29;20059;-82
2022/04/12 04:13:36;;;;;;;1.30;1.00;;;;;;;;;;20309401;29;20051;-81
2022/04/12 04:23:38;;;;;;;1.35;1.10;;;;;;;;;;20305591;29;20499;-81
2022/04/12 04:33:39;;;;;;;1.33;1.00;;;;;;;;;;20324351;29;20060;-82
2022/04/12 04:43:43;;;;;;;1.00;0.90;;;;;;;;;;20338145;29;20048;-82
2022/04/12 04:53:55;;;;;;;1.27;1.10;;;;;;;;;;20358732;29;20059;-81
2022/04/12 05:03:57;;;;;;;1.85;0.90;;;;;;;;;;20428412;29;20051;-82
2022/04/12 05:13:59;;;;;;;1.52;0.88;;;;;;;;;;20317044;29;20059;-82
2022/04/12 05:24:01;;;;;;;1.13;1.00;;;;;;;;;;20324424;29;20499;-81
2022/04/12 05:34:03;;;;;;;0.80;0.75;;;;;;;;;;20330572;29;20040;-81
2022/04/12 05:44:04;;;;;;;1.17;0.70;;;;;;;;;;20346918;29;20071;-82
2022/04/12 05:54:06;;;;;;;0.80;0.70;;;;;;;;;;20329548;29;20056;-83
2022/04/12 06:04:08;;;;;;;1.27;0.90;;;;;;;;;;20345510;29;20059;-82
2022/04/12 06:14:10;;;;;;;0.65;0.65;;;;;;;;;;20327454;29;20040;-82
2022/04/12 06:24:11;;;;;;;1.02;0.60;;;;;;;;;;20344255;29;20514;-82
2022/04/12 06:34:13;;;;;;;1.05;0.70;;;;;;;;;;20326775;29;20045;-82
2022/04/12 06:44:15;;;;;;;0.95;0.68;;;;;;;;;;20343138;29;20052;-82
2022/04/12 06:54:17;;;;;;;1.48;0.70;;;;;;;;;;20316489;29;20063;-83
2022/04/12 07:04:18;;;;;;;0.93;0.75;;;;;;;;;;20266801;29;20081;-82
2022/04/12 07:14:20;;;;;;;4.90;0.70;;;;;;;;;;20277715;29;20044;-82
2022/04/12 07:24:22;;;;;;;0.60;0.50;;;;;;;;;;20305142;29;20048;-82
2022/04/12 07:34:24;;;;;;;1.45;0.90;;;;;;;;;;20319793;29;20052;-82
2022/04/12 07:44:25;;;;;;;1.35;0.70;;;;;;;;;;20304715;29;20044;-83
2022/04/12 07:54:27;;;;;;;1.20;0.73;;;;;;;;;;20305985;29;20502;-82
2022/04/12 08:04:29;;;;;;;0.85;0.80;;;;;;;;;;20305037;29;20055;-82
2022/04/12 08:14:31;;;;;;;0.95;0.70;;;;;;;;;;20288299;29;20483;-83
2022/04/12 08:24:32;;;;;;;0.90;0.57;;;;;;;;;;20286882;29;20048;-82
2022/04/12 08:34:34;;;;;;;0.68;0.68;;;;;;;;;;20305290;29;20540;-83
2022/04/12 08:44:37;;;;;;;0.88;0.70;;;;;;;;;;20263572;29;20052;-83
2022/04/12 08:54:42;;;;;;;0.75;0.60;;;;;;;;;;20306517;29;20048;-82
2022/04/12 09:04:44;;;;;;;;;;;;;;;;;;20291392;29;20149;-84
2022/04/12 09:14:48;;;;;;;0.95;0.80;;;;;;;;;;20311401;29;20394;-82
2022/04/12 09:24:50;;;;;;;0.73;0.60;;;;;;;;;;20272549;29;20049;-83
2022/04/12 09:34:53;;;;;;;2.08;0.80;;;;;;;;;;20300070;29;20044;-83
2022/04/12 09:45:04;;;;;;;0.63;0.55;;;;;;;;;;20291817;29;20056;-82
2022/04/12 09:55:06;;;;;;;0.80;0.80;;;;;;;;;;20308952;29;20044;-81
2022/04/12 10:05:28;;;;;;;0.65;0.60;;;;;;;;;;20345395;29;20052;-80
2022/04/12 10:15:31;;;;;;;1.23;0.80;;;;;;;;;;20345196;29;20051;-81
2022/04/12 10:25:33;;;;;;;0.77;0.70;;;;;;;;;;20344202;29;20051;-82
2022/04/12 10:35:44;;;;;;;0.77;0.77;;;;;;;;;;20311060;29;20060;-82
2022/04/12 10:45:47;;;;;;;0.80;0.80;;;;;;;;;;20315925;29;20490;-82
2022/04/12 10:55:49;;;;;;;0.65;0.65;;;;;;;;;;20313025;29;20044;-82
2022/04/12 11:05:52;;;;;;;0.70;0.70;;;;;;;;;;20304811;29;20056;-82
2022/04/12 11:16:00;;;;;;;0.95;0.82;;;;;;;;;;20254698;29;20049;-82
2022/04/12 11:26:22;;;;;;;0.95;0.85;;;;;;;;;;20277819;29;20044;-82
2022/04/12 11:36:24;;;;;;;2.40;1.20;;;;;;;;;;20246355;29;20052;-82
2022/04/12 11:46:27;;;;;;;1.10;0.90;;;;;;;;;;20261767;29;20044;-82
2022/04/12 11:56:29;;;;;;;1.27;0.80;;;;;;;;;;20262308;29;20057;-82
2022/04/12 12:06:31;;;;;;;1.48;1.00;;;;;;;;;;20295016;29;20056;-82
2022/04/12 12:16:33;;;;;;;2.35;1.00;;;;;;;;;;20349032;29;20414;-83
2022/04/12 12:26:35;;;;;;;1.65;1.08;;;;;;;;;;20336154;29;20064;-82
2022/04/12 12:36:36;;;;;;;1.67;1.02;;;;;;;;;;20351824;29;20052;-82
2022/04/12 12:46:38;;;;;;;1.92;1.40;;;;;;;;;;20334825;29;20092;-82
2022/04/12 12:56:40;;;;;;;1.85;1.38;;;;;;;;;;20334077;29;20055;-82
2022/04/12 13:06:42;;;;;;;1.85;1.13;;;;;;;;;;20349795;29;20060;-82
2022/04/12 13:16:44;;;;;;;3.67;1.30;;;;;;;;;;20348777;29;20055;-82
2022/04/12 13:26:46;;;;;;;1.60;1.20;;;;;;;;;;20318043;29;20056;-82
2022/04/12 13:36:48;;;;;;;1.70;1.35;;;;;;;;;;20315434;29;20414;-83
2022/04/12 13:46:51;;;;;;;1.52;1.20;;;;;;;;;;20314667;29;20048;-82
2022/04/12 13:56:53;;;;;;;1.55;1.20;;;;;;;;;;20314766;29;20059;-83
2022/04/12 14:06:55;;;;;;;2.35;1.35;;;;;;;;;;20328231;29;20495;-83
2022/04/12 14:16:57;;;;;;;1.45;1.17;;;;;;;;;;20344821;29;20131;-82
2022/04/12 14:26:58;;;;;;;2.25;1.13;;;;;;;;;;20327246;29;20091;-83
2022/04/12 14:37:00;;;;;;;1.35;1.02;;;;;;;;;;20326844;29;20059;-82
2022/04/12 14:47:02;;;;;;;1.90;1.38;;;;;;;;;;20311489;29;20056;-82
2022/04/12 14:57:04;;;;;;;1.90;1.25;;;;;;;;;;20522244;23;20078;-82
2022/04/12 15:07:06;;;;;;;1.95;1.35;;;;;;;;;;20267150;29;20084;-82
2022/04/12 15:17:08;;;;;;;1.50;1.35;;;;;;;;;;20235508;29;20052;-82
2022/04/12 15:27:10;;;;;;;1.80;1.13;;;;;;;;;;20263935;29;20056;-83
2022/04/12 15:37:11;;;;;;;1.30;1.10;;;;;;;;;;20249497;29;20049;-83
2022/04/12 15:47:13;;;;;;;4.82;1.35;;;;;;;;;;20264594;29;20156;-83
2022/04/12 15:57:15;;;;;;;1.80;1.00;;;;;;;;;;20263497;29;20176;-82
2022/04/12 16:07:17;;;;;;;2.72;1.08;;;;;;;;;;20259611;29;20061;-83
2022/04/12 16:17:21;;;;;;;2.33;1.20;;;;;;;;;;20258922;29;20045;-83
2022/04/12 16:27:23;;;;;;;1.95;1.10;;;;;;;;;;20258044;29;20056;-82
2022/04/12 16:37:25;;;;;;;1.23;1.13;;;;;;;;;;20258178;29;20093;-82
2022/04/12 16:47:26;;;;;;;1.75;1.05;;;;;;;;;;20260904;29;20061;-83
2022/04/12 16:57:28;;;;;;;1.77;0.90;;;;;;;;;;20255131;29;20064;-83
2022/04/12 17:07:30;;;;;;;0.98;0.80;;;;;;;;;;20240154;29;20571;-82
2022/04/12 17:17:32;;;;;;;0.75;0.70;;;;;;;;;;20254454;29;20053;-82
2022/04/12 17:27:34;;;;;;;1.50;0.93;;;;;;;;;;20238207;29;20058;-84
2022/04/12 17:37:35;;;;;;;2.17;0.90;;;;;;;;;;20269513;29;20052;-82
2022/04/12 17:47:37;;;;;;;1.20;0.98;;;;;;;;;;20268704;29;20052;-83
2022/04/12 17:57:39;;;;;;;0.95;0.80;;;;;;;;;;20235749;29;20061;-82
2022/04/12 18:07:41;;;;;;;0.80;0.60;;;;;;;;;;20250885;29;20491;-82
2022/04/12 18:17:43;;;;;;;0.98;0.70;;;;;;;;;;20266705;29;20045;-82
2022/04/12 18:27:44;;;;;;;1.17;1.00;;;;;;;;;;20249902;29;20064;-82
2022/04/12 18:37:46;;;;;;;1.17;0.73;;;;;;;;;;20265893;29;20060;-82
2022/04/12 18:48:04;;;;;;;1.48;0.90;;;;;;;;;;20248534;29;20087;-83
2022/04/12 18:58:09;;;;;;;1.45;0.90;;;;;;;;;;20264194;29;20068;-83
2022/04/12 19:08:11;;;;;;;1.13;1.00;;;;;;;;;;20264756;29;20152;-84
2022/04/12 19:18:13;;;;;;;2.25;1.00;;;;;;;;;;20226567;29;20048;-83
2022/04/12 19:28:15;;;;;;;0.80;0.80;;;;;;;;;;20247700;29;20060;-84
2022/04/12 19:38:16;;;;;;;1.10;0.90;;;;;;;;;;20262057;29;20392;-83
2022/04/12 19:48:18;;;;;;;1.38;0.75;;;;;;;;;;20277966;29;20106;-83
2022/04/12 19:58:20;;;;;;;0.73;0.73;;;;;;;;;;20260874;29;20128;-83
2022/04/12 20:08:21;;;;;;;0.70;0.70;;;;;;;;;;20259720;29;20072;-83
2022/04/12 20:18:23;;;;;;;1.42;1.00;;;;;;;;;;20259218;29;20462;-84
2022/04/12 20:28:26;;;;;;;0.88;0.80;;;;;;;;;;20274106;29;20148;-84
2022/04/12 20:38:28;;;;;;;1.25;1.00;;;;;;;;;;20257775;29;20135;-83
2022/04/12 20:48:30;;;;;;;2.33;1.15;;;;;;;;;;20257470;29;20151;-82
2022/04/12 20:58:32;;;;;;;1.60;0.80;;;;;;;;;;20256313;29;20155;-82
2022/04/12 21:08:34;;;;;;;0.85;0.80;;;;;;;;;;20273003;29;20064;-82
2022/04/12 21:18:36;;;;;;;1.10;0.73;;;;;;;;;;20255023;29;20048;-83
2022/04/12 21:28:38;;;;;;;0.80;0.80;;;;;;;;;;20270450;29;20049;-84
2022/04/12 21:38:40;;;;;;;1.40;0.77;;;;;;;;;;20270541;29;20579;-83
2022/04/12 21:48:42;;;;;;;0.88;0.80;;;;;;;;;;20252575;29;20074;-83
2022/04/12 21:58:43;;;;;;;1.15;1.00;;;;;;;;;;20251812;29;20064;-82
2022/04/12 22:08:46;;;;;;;0.73;0.70;;;;;;;;;;20251956;29;20070;-83
2022/04/12 22:18:48;;;;;;;1.17;0.75;;;;;;;;;;20249918;29;20123;-83
2022/04/12 22:28:49;;;;;;;1.33;1.00;;;;;;;;;;20266959;29;20056;-82
2022/04/12 22:38:52;;;;;;;1.15;0.90;;;;;;;;;;20265905;29;20483;-81
2022/04/12 22:48:53;;;;;;;2.10;0.90;;;;;;;;;;20248153;29;20057;-81
2022/04/12 22:58:55;;;;;;;1.35;0.80;;;;;;;;;;20248527;29;20065;-83
2022/04/12 23:08:57;;;;;;;1.80;1.10;;;;;;;;;;20247858;29;20056;-83
2022/04/12 23:18:59;;;;;;;1.17;1.00;;;;;;;;;;20263644;29;20044;-83
2022/04/12 23:29:00;;;;;;;1.52;1.10;;;;;;;;;;20263937;29;20044;-83
2022/04/12 23:39:02;;;;;;;1.08;0.95;;;;;;;;;;20263053;29;20059;-83
2022/04/12 23:49:04;;;;;;;1.50;1.17;;;;;;;;;;20247408;29;20141;-84
2022/04/12 23:59:08;;;;;;;1.35;0.90;;;;;;;;;;20246433;29;20072;-82
